sensor_id;sensor_type;location;lat;lon;timestamp;pressure;altitude;pressure_sealevel;temperature;humidity
39487;BME280;25173;50.430;18.926;2023-03-04T00:00:37;98281.44;;;3.53;65.99
39487;BME280;25173;50.430;18.926;2023-03-04T00:03:42;98280.00;;;3.50;66.18
39487;BME280;25173;50.430;18.926;2023-03-04T00:06:43;98286.81;;;3.53;66.30
39487;BME280;25173;50.430;18.926;2023-03-04T00:09:44;98279.78;;;3.51;66.19
39487;BME280;25173;50.430;18.926;2023-03-04T00:12:45;98275.91;;;3.47;66.38
39487;BME280;25173;50.430;18.926;2023-03-04T00:15:46;98270.22;;;3.56;66.37
39487;BME280;25173;50.430;18.926;2023-03-04T00:18:46;98269.09;;;3.45;66.63
39487;BME280;25173;50.430;18.926;2023-03-04T00:21:47;98262.59;;;3.34;66.86
39487;BME280;25173;50.430;18.926;2023-03-04T00:24:47;98246.75;;;3.44;66.58
39487;BME280;25173;50.430;18.926;2023-03-04T00:27:48;98250.03;;;3.46;66.59
39487;BME280;25173;50.430;18.926;2023-03-04T00:30:49;98259.03;;;3.40;66.65
39487;BME280;25173;50.430;18.926;2023-03-04T00:33:49;98243.31;;;3.37;66.95
39487;BME280;25173;50.430;18.926;2023-03-04T00:36:50;98238.88;;;3.43;66.93
39487;BME280;25173;50.430;18.926;2023-03-04T00:39:51;98231.41;;;3.45;66.65
39487;BME280;25173;50.430;18.926;2023-03-04T00:42:52;98233.78;;;3.53;66.54
39487;BME280;25173;50.430;18.926;2023-03-04T00:45:52;98225.03;;;3.58;66.58
39487;BME280;25173;50.430;18.926;2023-03-04T00:48:53;98222.22;;;3.64;66.51
39487;BME280;25173;50.430;18.926;2023-03-04T00:51:54;98220.28;;;3.71;66.33
39487;BME280;25173;50.430;18.926;2023-03-04T00:54:54;98207.88;;;3.70;66.40
39487;BME280;25173;50.430;18.926;2023-03-04T00:57:55;98196.09;;;3.83;66.02
39487;BME280;25173;50.430;18.926;2023-03-04T01:00:55;98196.91;;;3.83;65.87
39487;BME280;25173;50.430;18.926;2023-03-04T01:03:56;98189.69;;;3.66;65.94
39487;BME280;25173;50.430;18.926;2023-03-04T01:06:56;98185.09;;;3.55;66.51
39487;BME280;25173;50.430;18.926;2023-03-04T01:09:57;98184.59;;;3.46;66.57
39487;BME280;25173;50.430;18.926;2023-03-04T01:12:58;98184.59;;;3.46;66.71
39487;BME280;25173;50.430;18.926;2023-03-04T01:16:00;98174.38;;;3.36;66.91
39487;BME280;25173;50.430;18.926;2023-03-04T01:19:02;98183.28;;;3.37;67.13
39487;BME280;25173;50.430;18.926;2023-03-04T01:22:03;98169.59;;;3.20;67.34
39487;BME280;25173;50.430;18.926;2023-03-04T01:25:05;98166.88;;;3.08;67.91
39487;BME280;25173;50.430;18.926;2023-03-04T01:28:06;98165.91;;;3.03;67.66
39487;BME280;25173;50.430;18.926;2023-03-04T01:31:06;98157.97;;;2.90;68.36
39487;BME280;25173;50.430;18.926;2023-03-04T01:34:07;98148.72;;;2.86;68.61
39487;BME280;25173;50.430;18.926;2023-03-04T01:37:10;98152.53;;;2.78;68.66
39487;BME280;25173;50.430;18.926;2023-03-04T01:40:13;98131.13;;;2.71;68.89
39487;BME280;25173;50.430;18.926;2023-03-04T01:43:23;98140.09;;;2.65;69.30
39487;BME280;25173;50.430;18.926;2023-03-04T01:46:24;98152.53;;;2.60;69.63
39487;BME280;25173;50.430;18.926;2023-03-04T01:49:25;98146.34;;;2.59;69.75
39487;BME280;25173;50.430;18.926;2023-03-04T01:52:26;98137.00;;;2.62;69.73
39487;BME280;25173;50.430;18.926;2023-03-04T01:55:29;98129.84;;;2.74;69.56
39487;BME280;25173;50.430;18.926;2023-03-04T01:58:31;98127.09;;;2.81;69.65
39487;BME280;25173;50.430;18.926;2023-03-04T02:01:32;98128.41;;;2.90;69.33
39487;BME280;25173;50.430;18.926;2023-03-04T02:04:33;98121.22;;;2.84;69.24
39487;BME280;25173;50.430;18.926;2023-03-04T02:07:39;98140.22;;;2.89;69.17
39487;BME280;25173;50.430;18.926;2023-03-04T02:10:42;98121.22;;;2.84;69.29
39487;BME280;25173;50.430;18.926;2023-03-04T02:13:43;98111.69;;;2.88;69.16
39487;BME280;25173;50.430;18.926;2023-03-04T02:16:44;98109.00;;;2.88;69.32
39487;BME280;25173;50.430;18.926;2023-03-04T02:19:50;98116.59;;;2.91;69.08
39487;BME280;25173;50.430;18.926;2023-03-04T02:23:57;98100.03;;;2.94;69.52
39487;BME280;25173;50.430;18.926;2023-03-04T02:26:36;98100.09;;;2.87;69.27
39487;BME280;25173;50.430;18.926;2023-03-04T02:29:37;98114.38;;;2.88;69.28
39487;BME280;25173;50.430;18.926;2023-03-04T02:32:37;98094.84;;;2.92;69.08
39487;BME280;25173;50.430;18.926;2023-03-04T02:35:38;98090.00;;;3.01;69.05
39487;BME280;25173;50.430;18.926;2023-03-04T02:38:38;98085.13;;;2.91;69.22
39487;BME280;25173;50.430;18.926;2023-03-04T02:41:39;98076.41;;;2.96;69.18
39487;BME280;25173;50.430;18.926;2023-03-04T02:44:42;98067.25;;;2.97;69.15
39487;BME280;25173;50.430;18.926;2023-03-04T02:47:46;98051.59;;;2.94;68.97
39487;BME280;25173;50.430;18.926;2023-03-04T02:50:51;98071.34;;;2.88;68.98
39487;BME280;25173;50.430;18.926;2023-03-04T02:53:52;98062.38;;;2.76;69.52
39487;BME280;25173;50.430;18.926;2023-03-04T02:56:57;98066.50;;;2.78;69.31
39487;BME280;25173;50.430;18.926;2023-03-04T02:59:58;98067.09;;;2.62;69.75
39487;BME280;25173;50.430;18.926;2023-03-04T03:03:01;98066.75;;;2.58;69.60
39487;BME280;25173;50.430;18.926;2023-03-04T03:06:02;98074.44;;;2.55;69.49
39487;BME280;25173;50.430;18.926;2023-03-04T03:09:03;98072.94;;;2.41;69.45
39487;BME280;25173;50.430;18.926;2023-03-04T03:12:04;98074.97;;;2.27;70.02
39487;BME280;25173;50.430;18.926;2023-03-04T03:15:07;98085.09;;;2.25;69.96
39487;BME280;25173;50.430;18.926;2023-03-04T03:18:09;98063.25;;;2.21;70.26
39487;BME280;25173;50.430;18.926;2023-03-04T03:21:10;98090.88;;;2.28;70.05
39487;BME280;25173;50.430;18.926;2023-03-04T03:24:11;98077.78;;;2.32;69.90
39487;BME280;25173;50.430;18.926;2023-03-04T03:27:11;98086.38;;;2.41;69.72
39487;BME280;25173;50.430;18.926;2023-03-04T03:30:13;98064.53;;;2.37;69.76
39487;BME280;25173;50.430;18.926;2023-03-04T03:33:15;98068.91;;;2.31;69.94
39487;BME280;25173;50.430;18.926;2023-03-04T03:36:15;98074.50;;;2.30;70.14
39487;BME280;25173;50.430;18.926;2023-03-04T03:39:16;98060.72;;;2.26;70.37
39487;BME280;25173;50.430;18.926;2023-03-04T03:42:17;98057.81;;;2.28;70.29
39487;BME280;25173;50.430;18.926;2023-03-04T03:45:18;98110.25;;;2.30;70.31
39487;BME280;25173;50.430;18.926;2023-03-04T03:48:18;98056.97;;;2.27;70.30
39487;BME280;25173;50.430;18.926;2023-03-04T03:51:19;98068.56;;;2.28;70.16
39487;BME280;25173;50.430;18.926;2023-03-04T03:54:19;98055.78;;;2.23;70.43
39487;BME280;25173;50.430;18.926;2023-03-04T03:57:20;98060.03;;;2.31;70.43
39487;BME280;25173;50.430;18.926;2023-03-04T04:00:21;98057.50;;;2.36;70.31
39487;BME280;25173;50.430;18.926;2023-03-04T04:03:23;98056.69;;;2.36;70.21
39487;BME280;25173;50.430;18.926;2023-03-04T04:06:24;98050.28;;;2.37;70.32
39487;BME280;25173;50.430;18.926;2023-03-04T04:09:24;98058.09;;;2.38;70.32
39487;BME280;25173;50.430;18.926;2023-03-04T04:12:25;98047.81;;;2.35;70.50
39487;BME280;25173;50.430;18.926;2023-03-04T04:15:26;98054.44;;;2.32;70.74
39487;BME280;25173;50.430;18.926;2023-03-04T04:18:26;98063.59;;;2.25;70.61
39487;BME280;25173;50.430;18.926;2023-03-04T04:21:27;98045.41;;;2.27;70.68
39487;BME280;25173;50.430;18.926;2023-03-04T04:24:28;98038.31;;;2.32;70.30
39487;BME280;25173;50.430;18.926;2023-03-04T04:27:29;98047.34;;;2.38;70.21
39487;BME280;25173;50.430;18.926;2023-03-04T04:30:29;98053.19;;;2.35;70.23
39487;BME280;25173;50.430;18.926;2023-03-04T04:33:30;98043.91;;;2.31;70.68
39487;BME280;25173;50.430;18.926;2023-03-04T04:36:31;98049.81;;;2.40;70.41
39487;BME280;25173;50.430;18.926;2023-03-04T04:39:31;98043.59;;;2.39;70.47
39487;BME280;25173;50.430;18.926;2023-03-04T04:42:32;98040.34;;;2.37;70.72
39487;BME280;25173;50.430;18.926;2023-03-04T04:45:34;98045.25;;;2.40;70.67
39487;BME280;25173;50.430;18.926;2023-03-04T04:48:34;98043.59;;;2.39;70.75
39487;BME280;25173;50.430;18.926;2023-03-04T04:51:36;98041.13;;;2.38;70.95
39487;BME280;25173;50.430;18.926;2023-03-04T04:54:37;98036.06;;;2.48;70.57
39487;BME280;25173;50.430;18.926;2023-03-04T04:57:38;98040.19;;;2.50;70.18
39487;BME280;25173;50.430;18.926;2023-03-04T05:00:38;98032.84;;;2.57;70.34
39487;BME280;25173;50.430;18.926;2023-03-04T05:03:39;98029.13;;;2.58;69.95
39487;BME280;25173;50.430;18.926;2023-03-04T05:06:40;98030.78;;;2.59;69.88
39487;BME280;25173;50.430;18.926;2023-03-04T05:09:41;98023.44;;;2.66;69.60
39487;BME280;25173;50.430;18.926;2023-03-04T05:12:43;98022.53;;;2.72;69.48
39487;BME280;25173;50.430;18.926;2023-03-04T05:15:44;98028.25;;;2.76;69.28
39487;BME280;25173;50.430;18.926;2023-03-04T05:18:45;98013.47;;;2.67;69.40
39487;BME280;25173;50.430;18.926;2023-03-04T05:21:46;98016.16;;;2.67;69.31
39487;BME280;25173;50.430;18.926;2023-03-04T05:24:46;97998.75;;;2.69;69.35
39487;BME280;25173;50.430;18.926;2023-03-04T05:27:47;98016.22;;;2.79;69.24
39487;BME280;25173;50.430;18.926;2023-03-04T05:30:48;98001.13;;;2.78;68.99
39487;BME280;25173;50.430;18.926;2023-03-04T05:33:49;98004.22;;;2.81;68.96
39487;BME280;25173;50.430;18.926;2023-03-04T05:36:49;98008.19;;;2.90;68.83
39487;BME280;25173;50.430;18.926;2023-03-04T05:39:50;97997.53;;;2.84;68.37
39487;BME280;25173;50.430;18.926;2023-03-04T05:42:50;97998.84;;;2.81;68.54
39487;BME280;25173;50.430;18.926;2023-03-04T05:45:51;97996.38;;;2.91;68.27
39487;BME280;25173;50.430;18.926;2023-03-04T05:48:52;97993.34;;;2.88;67.94
39487;BME280;25173;50.430;18.926;2023-03-04T05:51:53;97985.50;;;2.86;67.87
39487;BME280;25173;50.430;18.926;2023-03-04T05:54:54;97987.97;;;2.88;67.55
39487;BME280;25173;50.430;18.926;2023-03-04T05:57:55;97987.16;;;2.87;67.57
39487;BME280;25173;50.430;18.926;2023-03-04T06:00:59;97974.63;;;2.81;67.44
39487;BME280;25173;50.430;18.926;2023-03-04T06:04:00;97980.94;;;2.87;67.19
39487;BME280;25173;50.430;18.926;2023-03-04T06:07:00;97975.91;;;2.90;67.28
39487;BME280;25173;50.430;18.926;2023-03-04T06:10:02;97992.66;;;2.92;67.09
39487;BME280;25173;50.430;18.926;2023-03-04T06:13:02;97984.81;;;2.91;67.05
39487;BME280;25173;50.430;18.926;2023-03-04T06:16:04;97977.72;;;2.96;66.93
39487;BME280;25173;50.430;18.926;2023-03-04T06:19:04;97973.47;;;2.89;66.32
39487;BME280;25173;50.430;18.926;2023-03-04T06:22:05;97983.03;;;2.85;66.75
39487;BME280;25173;50.430;18.926;2023-03-04T06:25:06;97988.41;;;2.85;66.45
39487;BME280;25173;50.430;18.926;2023-03-04T06:28:07;97995.66;;;2.84;66.51
39487;BME280;25173;50.430;18.926;2023-03-04T06:31:07;97999.56;;;2.88;66.56
39487;BME280;25173;50.430;18.926;2023-03-04T06:34:08;98016.84;;;2.92;66.53
39487;BME280;25173;50.430;18.926;2023-03-04T06:37:09;98007.19;;;3.03;66.18
39487;BME280;25173;50.430;18.926;2023-03-04T06:40:11;98012.00;;;3.12;66.09
39487;BME280;25173;50.430;18.926;2023-03-04T06:43:11;98010.34;;;3.11;66.03
39487;BME280;25173;50.430;18.926;2023-03-04T06:46:12;98014.47;;;3.14;65.89
39487;BME280;25173;50.430;18.926;2023-03-04T06:49:13;98011.19;;;3.12;65.87
39487;BME280;25173;50.430;18.926;2023-03-04T06:52:13;98016.13;;;3.15;65.84
39487;BME280;25173;50.430;18.926;2023-03-04T06:55:14;98014.25;;;3.16;65.78
39487;BME280;25173;50.430;18.926;2023-03-04T06:58:15;98023.97;;;3.17;65.50
39487;BME280;25173;50.430;18.926;2023-03-04T07:01:19;98044.34;;;3.24;65.47
39487;BME280;25173;50.430;18.926;2023-03-04T07:04:21;98051.59;;;3.24;65.00
39487;BME280;25173;50.430;18.926;2023-03-04T07:07:25;98035.06;;;3.20;64.90
39487;BME280;25173;50.430;18.926;2023-03-04T07:10:26;98032.47;;;3.02;64.95
39487;BME280;25173;50.430;18.926;2023-03-04T07:13:30;98034.53;;;3.00;65.36
39487;BME280;25173;50.430;18.926;2023-03-04T07:16:31;98039.72;;;3.13;65.32
39487;BME280;25173;50.430;18.926;2023-03-04T07:19:31;98045.25;;;3.18;65.14
39487;BME280;25173;50.430;18.926;2023-03-04T07:22:32;98044.44;;;3.18;64.79
39487;BME280;25173;50.430;18.926;2023-03-04T07:25:33;98053.41;;;3.11;64.72
39487;BME280;25173;50.430;18.926;2023-03-04T07:28:35;98032.69;;;3.00;64.95
39487;BME280;25173;50.430;18.926;2023-03-04T07:31:35;98063.59;;;3.09;65.05
39487;BME280;25173;50.430;18.926;2023-03-04T07:34:36;98029.28;;;3.05;65.21
39487;BME280;25173;50.430;18.926;2023-03-04T07:37:37;98049.00;;;3.17;64.90
39487;BME280;25173;50.430;18.926;2023-03-04T07:40:39;98038.56;;;3.09;64.57
39487;BME280;25173;50.430;18.926;2023-03-04T07:43:40;98040.22;;;3.10;64.68
39487;BME280;25173;50.430;18.926;2023-03-04T07:46:40;98040.75;;;3.00;64.63
39487;BME280;25173;50.430;18.926;2023-03-04T07:49:41;98022.84;;;2.94;64.97
39487;BME280;25173;50.430;18.926;2023-03-04T07:52:45;98042.00;;;2.98;64.89
39487;BME280;25173;50.430;18.926;2023-03-04T07:55:47;98035.81;;;2.97;64.99
39487;BME280;25173;50.430;18.926;2023-03-04T07:58:47;98024.50;;;3.07;65.19
39487;BME280;25173;50.430;18.926;2023-03-04T08:01:48;98045.22;;;3.06;64.63
39487;BME280;25173;50.430;18.926;2023-03-04T08:04:49;98039.81;;;3.06;64.60
39487;BME280;25173;50.430;18.926;2023-03-04T08:07:49;98044.97;;;3.08;64.61
39487;BME280;25173;50.430;18.926;2023-03-04T08:10:50;98026.75;;;3.10;64.64
39487;BME280;25173;50.430;18.926;2023-03-04T08:13:51;98038.47;;;3.16;64.79
39487;BME280;25173;50.430;18.926;2023-03-04T08:16:53;98037.31;;;3.23;64.70
39487;BME280;25173;50.430;18.926;2023-03-04T08:19:54;98040.94;;;3.29;64.44
39487;BME280;25173;50.430;18.926;2023-03-04T08:22:55;98036.03;;;3.26;64.39
39487;BME280;25173;50.430;18.926;2023-03-04T08:25:55;98040.63;;;3.37;64.37
39487;BME280;25173;50.430;18.926;2023-03-04T08:28:56;98037.69;;;3.38;64.34
39487;BME280;25173;50.430;18.926;2023-03-04T08:31:57;98054.44;;;3.52;64.12
39487;BME280;25173;50.430;18.926;2023-03-04T08:34:58;98037.25;;;3.53;63.77
39487;BME280;25173;50.430;18.926;2023-03-04T08:38:01;98031.16;;;3.58;63.89
39487;BME280;25173;50.430;18.926;2023-03-04T08:41:02;98038.56;;;3.85;63.98
39487;BME280;25173;50.430;18.926;2023-03-04T08:44:03;98032.72;;;3.88;63.27
39487;BME280;25173;50.430;18.926;2023-03-04T08:47:04;98029.19;;;3.88;63.19
39487;BME280;25173;50.430;18.926;2023-03-04T08:50:09;98036.44;;;3.87;62.75
39487;BME280;25173;50.430;18.926;2023-03-04T08:53:10;98039.50;;;3.79;63.11
39487;BME280;25173;50.430;18.926;2023-03-04T08:56:12;98030.47;;;3.85;63.35
39487;BME280;25173;50.430;18.926;2023-03-04T08:59:13;98035.63;;;3.87;63.20
39487;BME280;25173;50.430;18.926;2023-03-04T09:02:13;98032.13;;;3.98;63.14
39487;BME280;25173;50.430;18.926;2023-03-04T09:05:14;98024.03;;;3.98;62.97
39487;BME280;25173;50.430;18.926;2023-03-04T09:08:15;98021.22;;;4.05;63.24
39487;BME280;25173;50.430;18.926;2023-03-04T09:11:16;98021.91;;;4.00;62.75
39487;BME280;25173;50.430;18.926;2023-03-04T09:14:17;98031.75;;;3.95;62.91
39487;BME280;25173;50.430;18.926;2023-03-04T09:17:17;98028.13;;;3.89;63.09
39487;BME280;25173;50.430;18.926;2023-03-04T09:20:18;98048.84;;;4.00;63.18
39487;BME280;25173;50.430;18.926;2023-03-04T09:23:20;98037.38;;;4.05;62.99
39487;BME280;25173;50.430;18.926;2023-03-04T09:26:24;98031.41;;;4.03;62.84
39487;BME280;25173;50.430;18.926;2023-03-04T09:29:24;98031.41;;;4.03;62.92
39487;BME280;25173;50.430;18.926;2023-03-04T09:32:25;98035.84;;;4.09;63.04
39487;BME280;25173;50.430;18.926;2023-03-04T09:35:26;98031.41;;;4.14;63.03
39487;BME280;25173;50.430;18.926;2023-03-04T09:38:29;98025.53;;;4.17;62.84
39487;BME280;25173;50.430;18.926;2023-03-04T09:41:38;98024.25;;;4.20;62.87
39487;BME280;25173;50.430;18.926;2023-03-04T09:44:42;98033.03;;;4.15;62.80
39487;BME280;25173;50.430;18.926;2023-03-04T09:47:47;98020.75;;;4.19;63.15
39487;BME280;25173;50.430;18.926;2023-03-04T09:51:05;98018.72;;;4.26;63.04
39487;BME280;25173;50.430;18.926;2023-03-04T09:57:44;98003.94;;;4.41;63.52
39487;BME280;25173;50.430;18.926;2023-03-04T10:00:54;98003.19;;;4.57;63.18
39487;BME280;25173;50.430;18.926;2023-03-04T10:03:58;98001.75;;;4.66;62.85
39487;BME280;25173;50.430;18.926;2023-03-04T10:07:02;98012.53;;;4.66;62.96
39487;BME280;25173;50.430;18.926;2023-03-04T10:10:09;98008.09;;;4.60;63.09
39487;BME280;25173;50.430;18.926;2023-03-04T10:13:18;98001.63;;;4.61;63.50
39487;BME280;25173;50.430;18.926;2023-03-04T10:16:25;97993.66;;;4.66;63.33
39487;BME280;25173;50.430;18.926;2023-03-04T10:19:42;97997.50;;;4.70;63.33
39487;BME280;25173;50.430;18.926;2023-03-04T10:22:50;97992.59;;;4.67;63.47
39487;BME280;25173;50.430;18.926;2023-03-04T10:25:52;97992.34;;;4.68;63.78
39487;BME280;25173;50.430;18.926;2023-03-04T10:28:53;97987.31;;;4.72;63.54
39487;BME280;25173;50.430;18.926;2023-03-04T10:31:54;97984.59;;;4.72;63.78
39487;BME280;25173;50.430;18.926;2023-03-04T10:34:55;97980.84;;;4.73;63.78
39487;BME280;25173;50.430;18.926;2023-03-04T10:38:01;97981.19;;;4.77;63.99
39487;BME280;25173;50.430;18.926;2023-03-04T10:41:17;97983.63;;;4.78;63.80
39487;BME280;25173;50.430;18.926;2023-03-04T10:44:19;97985.75;;;4.76;64.21
39487;BME280;25173;50.430;18.926;2023-03-04T10:47:22;97963.88;;;4.89;63.94
39487;BME280;25173;50.430;18.926;2023-03-04T10:50:26;97973.94;;;4.94;63.74
39487;BME280;25173;50.430;18.926;2023-03-04T10:53:32;97959.78;;;4.87;63.88
39487;BME280;25173;50.430;18.926;2023-03-04T10:56:41;97953.66;;;4.91;63.94
39487;BME280;25173;50.430;18.926;2023-03-04T10:59:48;97953.75;;;4.96;63.97
39487;BME280;25173;50.430;18.926;2023-03-04T11:06:21;97948.34;;;4.80;64.32
39487;BME280;25173;50.430;18.926;2023-03-04T11:09:25;97953.22;;;4.83;64.39
39487;BME280;25173;50.430;18.926;2023-03-04T11:12:32;97950.97;;;4.91;64.23
39487;BME280;25173;50.430;18.926;2023-03-04T11:15:48;97939.03;;;4.87;64.02
39487;BME280;25173;50.430;18.926;2023-03-04T11:18:52;97949.16;;;4.80;64.33
39487;BME280;25173;50.430;18.926;2023-03-04T11:21:53;97938.69;;;4.84;64.57
39487;BME280;25173;50.430;18.926;2023-03-04T11:24:58;97931.78;;;4.76;64.41
39487;BME280;25173;50.430;18.926;2023-03-04T11:28:05;97939.34;;;4.74;64.69
39487;BME280;25173;50.430;18.926;2023-03-04T11:31:13;97932.31;;;4.73;64.94
39487;BME280;25173;50.430;18.926;2023-03-04T11:34:23;97927.56;;;4.80;64.83
39487;BME280;25173;50.430;18.926;2023-03-04T11:40:52;97920.22;;;4.92;64.41
39487;BME280;25173;50.430;18.926;2023-03-04T11:43:53;97905.91;;;4.92;64.38
39487;BME280;25173;50.430;18.926;2023-03-04T11:47:11;97921.84;;;4.93;64.81
39487;BME280;25173;50.430;18.926;2023-03-04T11:50:25;97917.94;;;5.01;64.21
39487;BME280;25173;50.430;18.926;2023-03-04T12:24:22;97877.97;;;5.53;62.75
39487;BME280;25173;50.430;18.926;2023-03-04T12:27:32;97878.50;;;5.72;62.84
39487;BME280;25173;50.430;18.926;2023-03-04T12:40:48;97872.84;;;5.73;62.36
39487;BME280;25173;50.430;18.926;2023-03-04T12:44:22;97874.84;;;5.61;61.69
39487;BME280;25173;50.430;18.926;2023-03-04T12:47:31;97870.94;;;5.52;62.41
39487;BME280;25173;50.430;18.926;2023-03-04T12:50:44;97861.53;;;5.55;62.79
39487;BME280;25173;50.430;18.926;2023-03-04T12:57:18;97861.41;;;5.66;62.51
39487;BME280;25173;50.430;18.926;2023-03-04T13:00:43;97864.69;;;5.68;62.31
39487;BME280;25173;50.430;18.926;2023-03-04T13:10:24;97856.69;;;5.78;62.83
39487;BME280;25173;50.430;18.926;2023-03-04T13:20:16;97848.34;;;5.80;62.56
39487;BME280;25173;50.430;18.926;2023-03-04T13:23:27;97845.59;;;5.75;62.77
39487;BME280;25173;50.430;18.926;2023-03-04T13:26:36;97837.16;;;5.71;63.09
39487;BME280;25173;50.430;18.926;2023-03-04T13:29:36;97839.03;;;5.71;63.08
39487;BME280;25173;50.430;18.926;2023-03-04T13:32:37;97836.53;;;5.64;63.35
39487;BME280;25173;50.430;18.926;2023-03-04T13:42:42;97840.94;;;5.70;63.49
39487;BME280;25173;50.430;18.926;2023-03-04T13:45:43;97840.75;;;5.77;63.18
39487;BME280;25173;50.430;18.926;2023-03-04T13:51:50;97849.59;;;5.89;62.92
39487;BME280;25173;50.430;18.926;2023-03-04T13:58:30;97846.13;;;5.94;62.82
39487;BME280;25173;50.430;18.926;2023-03-04T14:01:36;97834.19;;;5.90;63.00
39487;BME280;25173;50.430;18.926;2023-03-04T14:04:41;97841.66;;;6.04;62.83
39487;BME280;25173;50.430;18.926;2023-03-04T14:07:42;97825.63;;;5.98;62.86
39487;BME280;25173;50.430;18.926;2023-03-04T14:10:43;97824.56;;;5.99;62.89
39487;BME280;25173;50.430;18.926;2023-03-04T14:13:43;97826.31;;;6.10;62.88
39487;BME280;25173;50.430;18.926;2023-03-04T14:16:50;97835.03;;;6.17;62.50
39487;BME280;25173;50.430;18.926;2023-03-04T14:19:51;97824.28;;;6.22;62.79
39487;BME280;25173;50.430;18.926;2023-03-04T14:22:52;97827.88;;;6.28;62.56
39487;BME280;25173;50.430;18.926;2023-03-04T14:26:10;97820.56;;;6.28;62.43
39487;BME280;25173;50.430;18.926;2023-03-04T14:29:37;97821.47;;;6.39;61.97
39487;BME280;25173;50.430;18.926;2023-03-04T14:32:40;97812.03;;;6.41;62.27
39487;BME280;25173;50.430;18.926;2023-03-04T14:35:47;97828.25;;;6.41;61.81
39487;BME280;25173;50.430;18.926;2023-03-04T14:38:53;97816.88;;;6.39;62.10
39487;BME280;25173;50.430;18.926;2023-03-04T14:41:56;97808.72;;;6.34;61.80
39487;BME280;25173;50.430;18.926;2023-03-04T14:45:00;97806.22;;;6.28;61.28
39487;BME280;25173;50.430;18.926;2023-03-04T14:48:04;97813.97;;;6.19;62.05
39487;BME280;25173;50.430;18.926;2023-03-04T14:51:26;97806.94;;;6.18;62.02
39487;BME280;25173;50.430;18.926;2023-03-04T14:57:33;97803.63;;;6.11;62.04
39487;BME280;25173;50.430;18.926;2023-03-04T15:00:36;97822.34;;;6.17;62.06
39487;BME280;25173;50.430;18.926;2023-03-04T15:03:39;97812.88;;;6.15;62.05
39487;BME280;25173;50.430;18.926;2023-03-04T15:06:50;97801.03;;;6.21;61.89
39487;BME280;25173;50.430;18.926;2023-03-04T15:09:53;97808.81;;;6.17;61.77
39487;BME280;25173;50.430;18.926;2023-03-04T15:12:56;97804.28;;;6.23;61.79
39487;BME280;25173;50.430;18.926;2023-03-04T15:16:00;97798.63;;;6.24;61.62
39487;BME280;25173;50.430;18.926;2023-03-04T15:19:04;97796.53;;;6.32;61.66
39487;BME280;25173;50.430;18.926;2023-03-04T15:22:05;97796.78;;;6.30;61.32
39487;BME280;25173;50.430;18.926;2023-03-04T15:25:10;97780.53;;;6.30;61.48
39487;BME280;25173;50.430;18.926;2023-03-04T15:28:16;97783.88;;;6.37;61.26
39487;BME280;25173;50.430;18.926;2023-03-04T15:31:20;97796.22;;;6.28;61.02
39487;BME280;25173;50.430;18.926;2023-03-04T15:34:21;97796.72;;;6.25;61.18
39487;BME280;25173;50.430;18.926;2023-03-04T15:37:26;97793.78;;;6.27;61.14
39487;BME280;25173;50.430;18.926;2023-03-04T15:40:46;97804.34;;;6.28;60.61
39487;BME280;25173;50.430;18.926;2023-03-04T15:43:46;97799.97;;;6.22;60.95
39487;BME280;25173;50.430;18.926;2023-03-04T15:46:47;97795.81;;;6.14;61.06
39487;BME280;25173;50.430;18.926;2023-03-04T15:49:48;97803.41;;;6.17;61.07
39487;BME280;25173;50.430;18.926;2023-03-04T15:52:49;97802.53;;;6.12;61.27
39487;BME280;25173;50.430;18.926;2023-03-04T15:55:50;97793.41;;;6.18;61.38
39487;BME280;25173;50.430;18.926;2023-03-04T15:58:54;97799.34;;;6.15;61.47
39487;BME280;25173;50.430;18.926;2023-03-04T16:01:55;97795.50;;;6.11;61.81
39487;BME280;25173;50.430;18.926;2023-03-04T16:04:55;97806.03;;;6.07;61.76
39487;BME280;25173;50.430;18.926;2023-03-04T16:07:56;97801.88;;;6.00;61.87
39487;BME280;25173;50.430;18.926;2023-03-04T16:10:56;97796.28;;;6.06;62.00
39487;BME280;25173;50.430;18.926;2023-03-04T16:13:57;97797.91;;;6.07;61.93
39487;BME280;25173;50.430;18.926;2023-03-04T16:16:57;97806.38;;;6.16;61.87
39487;BME280;25173;50.430;18.926;2023-03-04T16:19:58;97799.44;;;6.25;61.76
39487;BME280;25173;50.430;18.926;2023-03-04T16:22:59;97799.47;;;6.30;61.58
39487;BME280;25173;50.430;18.926;2023-03-04T16:26:00;97802.19;;;6.30;61.75
39487;BME280;25173;50.430;18.926;2023-03-04T16:29:01;97799.69;;;6.23;61.77
39487;BME280;25173;50.430;18.926;2023-03-04T16:32:02;97801.94;;;6.32;61.75
39487;BME280;25173;50.430;18.926;2023-03-04T16:35:03;97806.31;;;6.38;61.53
39487;BME280;25173;50.430;18.926;2023-03-04T16:38:09;97807.09;;;6.33;61.80
39487;BME280;25173;50.430;18.926;2023-03-04T16:41:15;97807.09;;;6.33;61.99
39487;BME280;25173;50.430;18.926;2023-03-04T16:44:16;97813.06;;;6.35;61.78
39487;BME280;25173;50.430;18.926;2023-03-04T16:47:17;97801.72;;;6.38;61.84
39487;BME280;25173;50.430;18.926;2023-03-04T16:50:20;97805.03;;;6.45;61.79
39487;BME280;25173;50.430;18.926;2023-03-04T16:53:46;97806.31;;;6.38;61.81
39487;BME280;25173;50.430;18.926;2023-03-04T16:56:47;97809.91;;;6.43;61.89
39487;BME280;25173;50.430;18.926;2023-03-04T16:59:48;97817.69;;;6.40;62.05
39487;BME280;25173;50.430;18.926;2023-03-04T17:02:57;97823.44;;;6.43;62.31
39487;BME280;25173;50.430;18.926;2023-03-04T17:05:57;97823.34;;;6.38;62.44
39487;BME280;25173;50.430;18.926;2023-03-04T17:08:58;97822.84;;;6.41;62.59
39487;BME280;25173;50.430;18.926;2023-03-04T17:11:59;97829.91;;;6.42;62.53
39487;BME280;25173;50.430;18.926;2023-03-04T17:14:59;97832.75;;;6.31;62.62
39487;BME280;25173;50.430;18.926;2023-03-04T17:18:03;97826.91;;;6.17;62.99
39487;BME280;25173;50.430;18.926;2023-03-04T17:21:06;97825.25;;;6.11;63.25
39487;BME280;25173;50.430;18.926;2023-03-04T17:24:07;97818.19;;;6.10;63.40
39487;BME280;25173;50.430;18.926;2023-03-04T17:27:10;97830.44;;;6.17;63.25
39487;BME280;25173;50.430;18.926;2023-03-04T17:30:11;97837.19;;;6.15;63.46
39487;BME280;25173;50.430;18.926;2023-03-04T17:33:12;97829.81;;;6.10;63.87